sensor_id;sensor_type;location;lat;lon;timestamp;pressure;altitude;pressure_sealevel;temperature;humidity
78625;BME280;67944;0.000;0.000;2023-07-29T00:00:53;100116.19;;;25.26;50.89
78625;BME280;67944;0.000;0.000;2023-07-29T00:03:21;100126.84;;;25.26;51.74
78625;BME280;67944;0.000;0.000;2023-07-29T00:05:47;100115.38;;;25.25;51.24
78625;BME280;67944;0.000;0.000;2023-07-29T00:08:12;100124.41;;;25.24;51.29
78625;BME280;67944;0.000;0.000;2023-07-29T00:10:38;100117.22;;;25.25;51.46
78625;BME280;67944;0.000;0.000;2023-07-29T00:13:13;100111.88;;;25.25;51.51
78625;BME280;67944;0.000;0.000;2023-07-29T00:15:39;100103.06;;;25.24;51.80
78625;BME280;67944;0.000;0.000;2023-07-29T00:18:04;100102.25;;;25.24;51.24
78625;BME280;67944;0.000;0.000;2023-07-29T00:20:30;100103.28;;;25.23;51.69
78625;BME280;67944;0.000;0.000;2023-07-29T00:22:55;100099.81;;;25.22;50.89
78625;BME280;67944;0.000;0.000;2023-07-29T00:25:23;100109.44;;;25.23;51.00
78625;BME280;67944;0.000;0.000;2023-07-29T00:27:48;100104.94;;;25.24;51.62
78625;BME280;67944;0.000;0.000;2023-07-29T00:30:14;100096.13;;;25.23;50.99
78625;BME280;67944;0.000;0.000;2023-07-29T00:32:39;100095.28;;;25.23;51.88
78625;BME280;67944;0.000;0.000;2023-07-29T00:35:05;100089.16;;;25.22;51.16
78625;BME280;67944;0.000;0.000;2023-07-29T00:37:31;100089.97;;;25.23;51.45
78625;BME280;67944;0.000;0.000;2023-07-29T00:39:57;100087.53;;;25.21;51.46
78625;BME280;67944;0.000;0.000;2023-07-29T00:42:23;100086.72;;;25.21;51.44
78625;BME280;67944;0.000;0.000;2023-07-29T00:44:49;100068.25;;;25.19;51.76
78625;BME280;67944;0.000;0.000;2023-07-29T00:47:15;100072.78;;;25.19;51.20
78625;BME280;67944;0.000;0.000;2023-07-29T00:49:43;100068.25;;;25.19;51.59
78625;BME280;67944;0.000;0.000;2023-07-29T00:52:09;100066.63;;;25.18;51.38
78625;BME280;67944;0.000;0.000;2023-07-29T00:54:40;100065.00;;;25.17;50.88
78625;BME280;67944;0.000;0.000;2023-07-29T00:57:08;100062.56;;;25.16;51.72
78625;BME280;67944;0.000;0.000;2023-07-29T00:59:35;100054.56;;;25.16;50.98
78625;BME280;67944;0.000;0.000;2023-07-29T01:02:02;100058.25;;;25.15;50.78
78625;BME280;67944;0.000;0.000;2023-07-29T01:04:27;100060.94;;;25.15;50.96
78625;BME280;67944;0.000;0.000;2023-07-29T01:07:02;100056.63;;;25.14;51.39
78625;BME280;67944;0.000;0.000;2023-07-29T01:12:17;100060.31;;;25.13;51.57
78625;BME280;67944;0.000;0.000;2023-07-29T01:14:55;100059.50;;;25.12;51.29
78625;BME280;67944;0.000;0.000;2023-07-29T01:17:23;100056.03;;;25.12;51.39
78625;BME280;67944;0.000;0.000;2023-07-29T01:20:14;100060.56;;;25.11;51.76
78625;BME280;67944;0.000;0.000;2023-07-29T01:22:40;100055.47;;;25.10;51.75
78625;BME280;67944;0.000;0.000;2023-07-29T01:25:06;100051.97;;;25.09;51.75
78625;BME280;67944;0.000;0.000;2023-07-29T01:27:32;100045.84;;;25.09;51.93
78625;BME280;67944;0.000;0.000;2023-07-29T01:29:58;100051.38;;;25.07;51.67
78625;BME280;67944;0.000;0.000;2023-07-29T01:32:53;100052.41;;;25.06;51.18
78625;BME280;67944;0.000;0.000;2023-07-29T01:38:03;100045.47;;;25.05;51.00
78625;BME280;67944;0.000;0.000;2023-07-29T01:40:30;100044.63;;;25.05;51.78
78625;BME280;67944;0.000;0.000;2023-07-29T01:42:56;100048.13;;;25.05;51.08
78625;BME280;67944;0.000;0.000;2023-07-29T01:45:25;100039.31;;;25.05;51.38
78625;BME280;67944;0.000;0.000;2023-07-29T01:47:51;100041.75;;;25.06;51.61
78625;BME280;67944;0.000;0.000;2023-07-29T01:50:17;100046.28;;;25.06;50.91
78625;BME280;67944;0.000;0.000;2023-07-29T01:52:42;100039.31;;;25.05;51.84
78625;BME280;67944;0.000;0.000;2023-07-29T01:55:08;100028.66;;;25.05;51.88
78625;BME280;67944;0.000;0.000;2023-07-29T01:57:33;100028.88;;;25.03;51.12
78625;BME280;67944;0.000;0.000;2023-07-29T01:59:59;100041.16;;;25.04;51.09
78625;BME280;67944;0.000;0.000;2023-07-29T02:02:25;100040.34;;;25.04;51.76
78625;BME280;67944;0.000;0.000;2023-07-29T02:04:50;100034.19;;;25.03;51.28
78625;BME280;67944;0.000;0.000;2023-07-29T02:07:20;100033.38;;;25.03;51.12
78625;BME280;67944;0.000;0.000;2023-07-29T02:09:45;100025.38;;;25.03;51.73
78625;BME280;67944;0.000;0.000;2023-07-29T02:12:11;100020.06;;;25.03;51.12
78625;BME280;67944;0.000;0.000;2023-07-29T02:14:36;100008.59;;;25.02;51.04
78625;BME280;67944;0.000;0.000;2023-07-29T02:17:02;100018.44;;;25.02;51.77
78625;BME280;67944;0.000;0.000;2023-07-29T02:19:27;100011.47;;;25.01;51.56
78625;BME280;67944;0.000;0.000;2023-07-29T02:21:53;100016.59;;;25.02;51.59
78625;BME280;67944;0.000;0.000;2023-07-29T02:24:18;100009.63;;;25.01;50.98
78625;BME280;67944;0.000;0.000;2023-07-29T02:26:44;100010.66;;;25.00;51.46
78625;BME280;67944;0.000;0.000;2023-07-29T02:29:09;100013.53;;;24.99;51.26
78625;BME280;67944;0.000;0.000;2023-07-29T02:31:34;100021.31;;;25.00;51.56
78625;BME280;67944;0.000;0.000;2023-07-29T02:34:02;100017.00;;;24.99;51.88
78625;BME280;67944;0.000;0.000;2023-07-29T02:36:28;100019.69;;;24.99;51.21
78625;BME280;67944;0.000;0.000;2023-07-29T02:38:53;100015.16;;;25.00;50.88
78625;BME280;67944;0.000;0.000;2023-07-29T02:41:19;100017.84;;;25.00;51.18
78625;BME280;67944;0.000;0.000;2023-07-29T02:43:48;100009.25;;;24.98;51.30
78625;BME280;67944;0.000;0.000;2023-07-29T02:46:14;100008.44;;;24.97;51.42
78625;BME280;67944;0.000;0.000;2023-07-29T02:48:39;100012.72;;;24.98;50.90
78625;BME280;67944;0.000;0.000;2023-07-29T02:51:05;100012.72;;;24.98;51.37
78625;BME280;67944;0.000;0.000;2023-07-29T02:53:30;100011.09;;;24.97;51.38
78625;BME280;67944;0.000;0.000;2023-07-29T02:55:56;100011.09;;;24.97;50.94
78625;BME280;67944;0.000;0.000;2023-07-29T02:58:21;100005.75;;;24.97;50.94
78625;BME280;67944;0.000;0.000;2023-07-29T03:00:47;100010.28;;;24.97;51.04
78625;BME280;67944;0.000;0.000;2023-07-29T03:03:14;100008.44;;;24.97;51.04
78625;BME280;67944;0.000;0.000;2023-07-29T03:05:39;100010.28;;;24.97;51.15
78625;BME280;67944;0.000;0.000;2023-07-29T03:08:05;100009.25;;;24.98;51.73
78625;BME280;67944;0.000;0.000;2023-07-29T03:10:30;99995.09;;;24.97;50.86
78625;BME280;67944;0.000;0.000;2023-07-29T03:12:56;99986.28;;;24.97;51.52
78625;BME280;67944;0.000;0.000;2023-07-29T03:15:25;99976.69;;;24.96;51.51
78625;BME280;67944;0.000;0.000;2023-07-29T03:17:51;99983.63;;;24.97;51.55
78625;BME280;67944;0.000;0.000;2023-07-29T03:20:17;99973.19;;;24.95;51.67
78625;BME280;67944;0.000;0.000;2023-07-29T03:22:44;99968.69;;;24.96;50.89
78625;BME280;67944;0.000;0.000;2023-07-29T03:25:09;99977.50;;;24.96;51.62
78625;BME280;67944;0.000;0.000;2023-07-29T03:27:34;99975.03;;;24.94;51.71
78625;BME280;67944;0.000;0.000;2023-07-29T03:30:03;99971.53;;;24.94;51.26
78625;BME280;67944;0.000;0.000;2023-07-29T03:32:28;99978.72;;;24.93;50.82
78625;BME280;67944;0.000;0.000;2023-07-29T03:34:54;99975.22;;;24.93;51.47
78625;BME280;67944;0.000;0.000;2023-07-29T03:37:20;99983.22;;;24.93;51.34
78625;BME280;67944;0.000;0.000;2023-07-29T03:39:45;99982.41;;;24.92;51.33
78625;BME280;67944;0.000;0.000;2023-07-29T03:42:10;99973.38;;;24.93;51.71
78625;BME280;67944;0.000;0.000;2023-07-29T03:44:36;99963.75;;;24.92;51.79
78625;BME280;67944;0.000;0.000;2023-07-29T03:47:04;99969.09;;;24.92;51.03
78625;BME280;67944;0.000;0.000;2023-07-29T03:49:29;99959.47;;;24.91;51.03
78625;BME280;67944;0.000;0.000;2023-07-29T03:51:55;99975.22;;;24.93;51.24
78625;BME280;67944;0.000;0.000;2023-07-29T03:54:20;99970.13;;;24.91;51.85
78625;BME280;67944;0.000;0.000;2023-07-29T03:56:46;99969.31;;;24.91;51.45
78625;BME280;67944;0.000;0.000;2023-07-29T03:59:11;99974.63;;;24.91;51.15
78625;BME280;67944;0.000;0.000;2023-07-29T04:01:37;99974.63;;;24.91;51.22
78625;BME280;67944;0.000;0.000;2023-07-29T04:04:02;99974.88;;;24.89;51.60
78625;BME280;67944;0.000;0.000;2023-07-29T04:06:28;99981.81;;;24.90;51.75
78625;BME280;67944;0.000;0.000;2023-07-29T04:08:53;99968.75;;;24.89;51.29
78625;BME280;67944;0.000;0.000;2023-07-29T04:11:19;99979.16;;;24.90;51.51
78625;BME280;67944;0.000;0.000;2023-07-29T04:13:45;99987.13;;;24.90;51.86
78625;BME280;67944;0.000;0.000;2023-07-29T04:16:10;99984.47;;;24.90;51.24
78625;BME280;67944;0.000;0.000;2023-07-29T04:18:36;99976.72;;;24.89;50.88
78625;BME280;67944;0.000;0.000;2023-07-29T04:21:01;99972.22;;;24.89;51.69
78625;BME280;67944;0.000;0.000;2023-07-29T04:23:27;99975.66;;;24.90;51.16
78625;BME280;67944;0.000;0.000;2023-07-29T04:25:52;99964.22;;;24.89;51.47
78625;BME280;67944;0.000;0.000;2023-07-29T04:28:18;99964.22;;;24.89;50.83
78625;BME280;67944;0.000;0.000;2023-07-29T04:30:43;99961.56;;;24.89;51.77
78625;BME280;67944;0.000;0.000;2023-07-29T04:33:09;99951.94;;;24.88;51.72
78625;BME280;67944;0.000;0.000;2023-07-29T04:35:34;99966.88;;;24.89;51.14
78625;BME280;67944;0.000;0.000;2023-07-29T04:38:00;99961.56;;;24.89;51.14
78625;BME280;67944;0.000;0.000;2023-07-29T04:40:25;99965.25;;;24.88;51.17
78625;BME280;67944;0.000;0.000;2023-07-29T04:42:51;99959.94;;;24.88;51.06
78625;BME280;67944;0.000;0.000;2023-07-29T04:45:16;99959.94;;;24.88;51.76
78625;BME280;67944;0.000;0.000;2023-07-29T04:47:42;99964.44;;;24.88;50.87
78625;BME280;67944;0.000;0.000;2023-07-29T04:50:08;99961.56;;;24.89;51.51
78625;BME280;67944;0.000;0.000;2023-07-29T04:52:34;99965.25;;;24.88;50.88
78625;BME280;67944;0.000;0.000;2023-07-29T04:54:59;99962.59;;;24.88;51.65
78625;BME280;67944;0.000;0.000;2023-07-29T04:57:25;99969.78;;;24.88;51.41
78625;BME280;67944;0.000;0.000;2023-07-29T04:59:50;99965.25;;;24.88;51.43
78625;BME280;67944;0.000;0.000;2023-07-29T05:02:15;99975.91;;;24.88;51.05
78625;BME280;67944;0.000;0.000;2023-07-29T05:04:41;99975.91;;;24.88;51.11
78625;BME280;67944;0.000;0.000;2023-07-29T05:07:07;99984.94;;;24.87;51.69
78625;BME280;67944;0.000;0.000;2023-07-29T05:09:32;99990.06;;;24.89;51.61
78625;BME280;67944;0.000;0.000;2023-07-29T05:11:58;99989.22;;;24.88;51.59
78625;BME280;67944;0.000;0.000;2023-07-29T05:14:23;99991.91;;;24.88;50.76
78625;BME280;67944;0.000;0.000;2023-07-29T05:16:49;99996.41;;;24.88;51.09
78625;BME280;67944;0.000;0.000;2023-07-29T05:19:14;100001.75;;;24.88;51.36
78625;BME280;67944;0.000;0.000;2023-07-29T05:21:40;100004.63;;;24.86;50.85
78625;BME280;67944;0.000;0.000;2023-07-29T05:24:05;100000.91;;;24.87;51.32
78625;BME280;67944;0.000;0.000;2023-07-29T05:26:31;100006.25;;;24.87;51.76
78625;BME280;67944;0.000;0.000;2023-07-29T05:28:56;99988.41;;;24.88;50.97
78625;BME280;67944;0.000;0.000;2023-07-29T05:31:22;99987.59;;;24.87;51.75
78625;BME280;67944;0.000;0.000;2023-07-29T05:33:48;99983.31;;;24.86;51.05
78625;BME280;67944;0.000;0.000;2023-07-29T05:36:13;99988.41;;;24.88;51.18
78625;BME280;67944;0.000;0.000;2023-07-29T05:38:39;99999.06;;;24.88;51.27
78625;BME280;67944;0.000;0.000;2023-07-29T05:41:04;99986.56;;;24.88;51.53
78625;BME280;67944;0.000;0.000;2023-07-29T05:43:30;99988.41;;;24.88;51.45
78625;BME280;67944;0.000;0.000;2023-07-29T05:45:55;99991.91;;;24.88;50.67
78625;BME280;67944;0.000;0.000;2023-07-29T05:48:21;99995.38;;;24.89;50.93
78625;BME280;67944;0.000;0.000;2023-07-29T05:50:47;99999.88;;;24.88;51.07
78625;BME280;67944;0.000;0.000;2023-07-29T05:53:14;99998.84;;;24.89;51.41
78625;BME280;67944;0.000;0.000;2023-07-29T05:55:39;99991.91;;;24.88;51.29
78625;BME280;67944;0.000;0.000;2023-07-29T05:58:05;99996.19;;;24.89;51.48
78625;BME280;67944;0.000;0.000;2023-07-29T06:00:31;100011.94;;;24.91;51.39
78625;BME280;67944;0.000;0.000;2023-07-29T06:02:56;99992.47;;;24.90;50.95
78625;BME280;67944;0.000;0.000;2023-07-29T06:05:22;99999.44;;;24.91;50.65
78625;BME280;67944;0.000;0.000;2023-07-29T06:07:47;99994.09;;;24.91;51.63
78625;BME280;67944;0.000;0.000;2023-07-29T06:10:16;100007.41;;;24.91;50.79
78625;BME280;67944;0.000;0.000;2023-07-29T06:12:44;99989.38;;;24.93;51.45
78625;BME280;67944;0.000;0.000;2023-07-29T06:15:09;99982.00;;;24.96;51.50
78625;BME280;67944;0.000;0.000;2023-07-29T06:17:35;99988.97;;;24.97;50.77
78625;BME280;67944;0.000;0.000;2023-07-29T06:20:01;99988.75;;;24.98;50.88
78625;BME280;67944;0.000;0.000;2023-07-29T06:22:26;99993.84;;;25.00;51.15
78625;BME280;67944;0.000;0.000;2023-07-29T06:24:51;99990.97;;;25.01;51.41
78625;BME280;67944;0.000;0.000;2023-07-29T06:27:17;99999.56;;;25.03;51.42
78625;BME280;67944;0.000;0.000;2023-07-29T06:29:42;99993.19;;;25.04;51.04
78625;BME280;67944;0.000;0.000;2023-07-29T06:32:08;99994.00;;;25.05;50.54
78625;BME280;67944;0.000;0.000;2023-07-29T06:34:33;100001.56;;;25.08;51.25
78625;BME280;67944;0.000;0.000;2023-07-29T06:36:59;99993.34;;;25.09;50.75
78625;BME280;67944;0.000;0.000;2023-07-29T06:39:24;99991.50;;;25.10;50.42
78625;BME280;67944;0.000;0.000;2023-07-29T06:41:50;99986.75;;;25.12;50.39
78625;BME280;67944;0.000;0.000;2023-07-29T06:44:15;99983.03;;;25.13;50.66
78625;BME280;67944;0.000;0.000;2023-07-29T06:46:41;99976.47;;;25.15;50.53
78625;BME280;67944;0.000;0.000;2023-07-29T06:49:07;99992.22;;;25.17;51.18
78625;BME280;67944;0.000;0.000;2023-07-29T06:51:32;99991.19;;;25.18;50.75
78625;BME280;67944;0.000;0.000;2023-07-29T06:54:00;100003.50;;;25.19;51.03
78625;BME280;67944;0.000;0.000;2023-07-29T06:56:26;100006.75;;;25.21;50.55
78625;BME280;67944;0.000;0.000;2023-07-29T06:58:52;100014.53;;;25.22;50.68
78625;BME280;67944;0.000;0.000;2023-07-29T07:01:17;100022.31;;;25.24;50.47
78625;BME280;67944;0.000;0.000;2023-07-29T07:03:43;100023.94;;;25.25;50.76
78625;BME280;67944;0.000;0.000;2023-07-29T07:06:08;100029.25;;;25.25;50.41
78625;BME280;67944;0.000;0.000;2023-07-29T07:08:34;100031.72;;;25.26;50.63
78625;BME280;67944;0.000;0.000;2023-07-29T07:10:59;100035.19;;;25.27;50.32
78625;BME280;67944;0.000;0.000;2023-07-29T07:13:25;100042.97;;;25.28;50.62
78625;BME280;67944;0.000;0.000;2023-07-29T07:15:50;100037.63;;;25.28;50.70
78625;BME280;67944;0.000;0.000;2023-07-29T07:18:16;100035.78;;;25.29;50.36
78625;BME280;67944;0.000;0.000;2023-07-29T07:20:41;100041.13;;;25.29;51.20
78625;BME280;67944;0.000;0.000;2023-07-29T07:23:07;100039.06;;;25.31;50.32
78625;BME280;67944;0.000;0.000;2023-07-29T07:25:36;100032.91;;;25.31;50.20
78625;BME280;67944;0.000;0.000;2023-07-29T07:28:02;100008.69;;;25.32;50.22
78625;BME280;67944;0.000;0.000;2023-07-29T07:30:27;100026.31;;;25.33;50.24
78625;BME280;67944;0.000;0.000;2023-07-29T07:32:53;100035.69;;;25.36;50.37
78625;BME280;67944;0.000;0.000;2023-07-29T07:35:18;100031.19;;;25.36;50.44
78625;BME280;67944;0.000;0.000;2023-07-29T07:37:44;100025.03;;;25.36;51.10
78625;BME280;67944;0.000;0.000;2023-07-29T07:40:09;100035.47;;;25.37;50.11
78625;BME280;67944;0.000;0.000;2023-07-29T07:42:35;100031.78;;;25.38;51.16
78625;BME280;67944;0.000;0.000;2023-07-29T07:45:01;100032.59;;;25.39;50.10
78625;BME280;67944;0.000;0.000;2023-07-29T07:47:26;100032.38;;;25.40;50.29
78625;BME280;67944;0.000;0.000;2023-07-29T07:49:52;100036.06;;;25.39;50.31
78625;BME280;67944;0.000;0.000;2023-07-29T07:52:17;100033.19;;;25.41;50.85
78625;BME280;67944;0.000;0.000;2023-07-29T07:54:43;100030.50;;;25.41;50.40
78625;BME280;67944;0.000;0.000;2023-07-29T07:57:08;100034.81;;;25.42;50.90
78625;BME280;67944;0.000;0.000;2023-07-29T07:59:33;100046.28;;;25.42;50.66
78625;BME280;67944;0.000;0.000;2023-07-29T08:01:59;100037.25;;;25.43;50.65
78625;BME280;67944;0.000;0.000;2023-07-29T08:04:24;100052.22;;;25.44;50.46
78625;BME280;67944;0.000;0.000;2023-07-29T08:06:50;100052.00;;;25.46;50.60
78625;BME280;67944;0.000;0.000;2023-07-29T08:09:15;100041.34;;;25.46;50.94
78625;BME280;67944;0.000;0.000;2023-07-29T08:11:41;100035.78;;;25.47;50.72
78625;BME280;67944;0.000;0.000;2023-07-29T08:14:06;100036.81;;;25.46;50.66
78625;BME280;67944;0.000;0.000;2023-07-29T08:16:32;100051.56;;;25.49;50.70
78625;BME280;67944;0.000;0.000;2023-07-29T08:18:57;100050.53;;;25.50;51.45
78625;BME280;67944;0.000;0.000;2023-07-29T08:21:23;100050.31;;;25.51;51.61
78625;BME280;67944;0.000;0.000;2023-07-29T08:23:48;100051.94;;;25.52;51.88
78625;BME280;67944;0.000;0.000;2023-07-29T08:26:14;100045.56;;;25.53;51.87
78625;BME280;67944;0.000;0.000;2023-07-29T08:28:40;100051.72;;;25.54;51.20
78625;BME280;67944;0.000;0.000;2023-07-29T08:31:06;100049.88;;;25.54;51.59
78625;BME280;67944;0.000;0.000;2023-07-29T08:33:32;100054.94;;;25.56;51.70
78625;BME280;67944;0.000;0.000;2023-07-29T08:35:59;100059.25;;;25.57;51.58
78625;BME280;67944;0.000;0.000;2023-07-29T08:38:25;100059.03;;;25.58;52.06
78625;BME280;67944;0.000;0.000;2023-07-29T08:41:10;100051.84;;;25.59;51.45
78625;BME280;67944;0.000;0.000;2023-07-29T08:43:49;100063.09;;;25.61;51.58
78625;BME280;67944;0.000;0.000;2023-07-29T08:46:16;100053.25;;;25.61;51.54
78625;BME280;67944;0.000;0.000;2023-07-29T08:48:43;100046.91;;;25.63;51.81
78625;BME280;67944;0.000;0.000;2023-07-29T08:51:10;100042.38;;;25.63;51.75
78625;BME280;67944;0.000;0.000;2023-07-29T08:53:37;100052.63;;;25.66;51.60
78625;BME280;67944;0.000;0.000;2023-07-29T08:56:04;100050.75;;;25.67;51.93
78625;BME280;67944;0.000;0.000;2023-07-29T08:58:31;100051.34;;;25.69;51.78
78625;BME280;67944;0.000;0.000;2023-07-29T09:00:56;100066.31;;;25.70;51.54
78625;BME280;67944;0.000;0.000;2023-07-29T09:03:22;100062.63;;;25.71;51.63
78625;BME280;67944;0.000;0.000;2023-07-29T09:05:48;100066.69;;;25.73;51.89
78625;BME280;67944;0.000;0.000;2023-07-29T09:08:14;100072.84;;;25.74;51.91
78625;BME280;67944;0.000;0.000;2023-07-29T09:10:40;100073.44;;;25.76;51.45
78625;BME280;67944;0.000;0.000;2023-07-29T09:13:06;100075.03;;;25.77;51.72
78625;BME280;67944;0.000;0.000;2023-07-29T09:15:35;100085.28;;;25.80;51.85
78625;BME280;67944;0.000;0.000;2023-07-29T09:18:10;100080.75;;;25.80;51.91
78625;BME280;67944;0.000;0.000;2023-07-29T09:20:36;100080.75;;;25.80;51.44
78625;BME280;67944;0.000;0.000;2023-07-29T09:23:01;100077.84;;;25.82;51.73
78625;BME280;67944;0.000;0.000;2023-07-29T09:25:29;100077.63;;;25.83;51.35
78625;BME280;67944;0.000;0.000;2023-07-29T09:28:07;100078.22;;;25.85;50.98
78625;BME280;67944;0.000;0.000;2023-07-29T09:30:32;100071.63;;;25.88;50.96
78625;BME280;67944;0.000;0.000;2023-07-29T09:32:58;100066.28;;;25.88;51.13
78625;BME280;67944;0.000;0.000;2023-07-29T09:35:34;100058.88;;;25.90;51.46
78625;BME280;67944;0.000;0.000;2023-07-29T09:38:04;100060.50;;;25.91;51.45
78625;BME280;67944;0.000;0.000;2023-07-29T09:40:37;100051.47;;;25.92;51.04
78625;BME280;67944;0.000;0.000;2023-07-29T09:43:04;100046.94;;;25.92;51.13
78625;BME280;67944;0.000;0.000;2023-07-29T09:45:33;100039.53;;;25.94;51.43
78625;BME280;67944;0.000;0.000;2023-07-29T09:47:59;100044.44;;;25.98;51.32
78625;BME280;67944;0.000;0.000;2023-07-29T09:50:26;100044.19;;;25.99;51.13
78625;BME280;67944;0.000;0.000;2023-07-29T09:52:53;100035.13;;;26.00;51.49
78625;BME280;67944;0.000;0.000;2023-07-29T09:55:22;100033.06;;;26.02;51.47
78625;BME280;67944;0.000;0.000;2023-07-29T09:57:53;100022.97;;;26.04;50.84
78625;BME280;67944;0.000;0.000;2023-07-29T10:00:19;100020.88;;;26.06;51.21
78625;BME280;67944;0.000;0.000;2023-07-29T10:02:45;100024.97;;;26.09;51.35
78625;BME280;67944;0.000;0.000;2023-07-29T10:05:11;100022.06;;;26.10;51.36
78625;BME280;67944;0.000;0.000;2023-07-29T10:07:38;100020.00;;;26.12;50.59
78625;BME280;67944;0.000;0.000;2023-07-29T10:10:06;100009.91;;;26.14;51.26
78625;BME280;67944;0.000;0.000;2023-07-29T10:12:33;100010.50;;;26.16;50.51
78625;BME280;67944;0.000;0.000;2023-07-29T10:15:03;100015.59;;;26.18;50.60
78625;BME280;67944;0.000;0.000;2023-07-29T10:17:29;100023.94;;;26.21;50.67
78625;BME280;67944;0.000;0.000;2023-07-29T10:19:56;100016.53;;;26.23;50.66
78625;BME280;67944;0.000;0.000;2023-07-29T10:22:25;100033.94;;;26.26;51.23
78625;BME280;67944;0.000;0.000;2023-07-29T10:24:56;100043.97;;;26.31;50.74
78625;BME280;67944;0.000;0.000;2023-07-29T10:27:25;100041.09;;;26.32;51.00
78625;BME280;67944;0.000;0.000;2023-07-29T10:29:55;100036.91;;;26.36;50.89
78625;BME280;67944;0.000;0.000;2023-07-29T10:32:25;100034.63;;;26.40;50.64
78625;BME280;67944;0.000;0.000;2023-07-29T10:34:52;100026.13;;;26.43;50.69
78625;BME280;67944;0.000;0.000;2023-07-29T10:37:17;100024.84;;;26.45;50.49
78625;BME280;67944;0.000;0.000;2023-07-29T10:39:55;100028.69;;;26.49;50.66
78625;BME280;67944;0.000;0.000;2023-07-29T10:42:20;100021.28;;;26.51;50.62
78625;BME280;67944;0.000;0.000;2023-07-29T10:44:47;100022.91;;;26.52;50.73
78625;BME280;67944;0.000;0.000;2023-07-29T10:47:24;100015.47;;;26.54;50.98
78625;BME280;67944;0.000;0.000;2023-07-29T10:49:56;100004.56;;;26.56;50.40
78625;BME280;67944;0.000;0.000;2023-07-29T10:55:00;100009.22;;;26.60;50.47
78625;BME280;67944;0.000;0.000;2023-07-29T10:57:35;100007.13;;;26.62;50.52
78625;BME280;67944;0.000;0.000;2023-07-29T11:00:02;100005.81;;;26.65;50.65
78625;BME280;67944;0.000;0.000;2023-07-29T11:02:31;99986.66;;;26.68;50.59
78625;BME280;67944;0.000;0.000;2023-07-29T11:04:57;99996.91;;;26.71;50.20
78625;BME280;67944;0.000;0.000;2023-07-29T11:07:24;99994.56;;;26.75;50.70
78625;BME280;67944;0.000;0.000;2023-07-29T11:09:55;99999.47;;;26.78;50.07
78625;BME280;67944;0.000;0.000;2023-07-29T11:17:38;99990.25;;;26.85;50.43
78625;BME280;67944;0.000;0.000;2023-07-29T11:20:05;99989.22;;;26.86;49.99
78625;BME280;67944;0.000;0.000;2023-07-29T11:22:33;99992.69;;;26.87;50.18
78625;BME280;67944;0.000;0.000;2023-07-29T11:24:59;99987.13;;;26.88;50.05
78625;BME280;67944;0.000;0.000;2023-07-29T11:27:24;99978.06;;;26.89;50.00
78625;BME280;67944;0.000;0.000;2023-07-29T11:29:50;99986.09;;;26.89;50.08
78625;BME280;67944;0.000;0.000;2023-07-29T11:32:16;99987.47;;;26.92;49.71
78625;BME280;67944;0.000;0.000;2023-07-29T11:34:42;99977.59;;;26.92;49.81
78625;BME280;67944;0.000;0.000;2023-07-29T11:37:11;99972.88;;;26.94;50.00
78625;BME280;67944;0.000;0.000;2023-07-29T11:39:40;99970.78;;;26.96;49.65
78625;BME280;67944;0.000;0.000;2023-07-29T11:42:06;99972.41;;;26.98;49.80
78625;BME280;67944;0.000;0.000;2023-07-29T11:44:32;99971.38;;;26.99;49.98
78625;BME280;67944;0.000;0.000;2023-07-29T11:46:57;99959.41;;;27.01;49.51
78625;BME280;67944;0.000;0.000;2023-07-29T11:49:23;99965.56;;;27.02;49.74
78625;BME280;67944;0.000;0.000;2023-07-29T11:51:48;99966.13;;;27.04;49.45
78625;BME280;67944;0.000;0.000;2023-07-29T11:54:15;99954.41;;;27.05;49.72
78625;BME280;67944;0.000;0.000;2023-07-29T11:56:41;99969.94;;;27.08;49.46
78625;BME280;67944;0.000;0.000;2023-07-29T11:59:06;99967.03;;;27.09;49.45
78625;BME280;67944;0.000;0.000;2023-07-29T12:01:32;99965.16;;;27.10;49.00
78625;BME280;67944;0.000;0.000;2023-07-29T12:03:59;99970.28;;;27.11;49.14
78625;BME280;67944;0.000;0.000;2023-07-29T12:06:25;99978.88;;;27.13;49.24
78625;BME280;67944;0.000;0.000;2023-07-29T12:08:52;99973.31;;;27.15;49.34
78625;BME280;67944;0.000;0.000;2023-07-29T12:11:18;99964.25;;;27.16;49.39
78625;BME280;67944;0.000;0.000;2023-07-29T12:13:44;99970.97;;;27.18;49.33
78625;BME280;67944;0.000;0.000;2023-07-29T12:16:09;99968.06;;;27.20;49.41
78625;BME280;67944;0.000;0.000;2023-07-29T12:18:36;99964.34;;;27.21;49.02
78625;BME280;67944;0.000;0.000;2023-07-29T12:21:02;99968.41;;;27.23;48.83
78625;BME280;67944;0.000;0.000;2023-07-29T12:23:29;99976.22;;;27.25;49.03
78625;BME280;67944;0.000;0.000;2023-07-29T12:25:59;99973.06;;;27.28;48.92
78625;BME280;67944;0.000;0.000;2023-07-29T12:28:25;99982.44;;;27.30;48.80
78625;BME280;67944;0.000;0.000;2023-07-29T12:30:54;99979.78;;;27.30;48.58
78625;BME280;67944;0.000;0.000;2023-07-29T12:33:31;99979.31;;;27.34;48.83
78625;BME280;67944;0.000;0.000;2023-07-29T12:35:57;99974.53;;;27.36;48.60
78625;BME280;67944;0.000;0.000;2023-07-29T12:38:22;99964.66;;;27.36;48.45
78625;BME280;67944;0.000;0.000;2023-07-29T12:40:48;99972.44;;;27.38;48.74
78625;BME280;67944;0.000;0.000;2023-07-29T12:43:13;99976.50;;;27.40;48.57
78625;BME280;67944;0.000;0.000;2023-07-29T12:45:39;99984.53;;;27.40;48.30
78625;BME280;67944;0.000;0.000;2023-07-29T12:48:08;99989.66;;;27.42;48.56
78625;BME280;67944;0.000;0.000;2023-07-29T12:50:33;99990.22;;;27.44;48.57
78625;BME280;67944;0.000;0.000;2023-07-29T12:52:59;99992.66;;;27.45;48.39
78625;BME280;67944;0.000;0.000;2023-07-29T12:55:24;99976.63;;;27.45;48.23
78625;BME280;67944;0.000;0.000;2023-07-29T12:57:50;99986.03;;;27.48;47.97
78625;BME280;67944;0.000;0.000;2023-07-29T13:00:15;99984.16;;;27.48;48.03
78625;BME280;67944;0.000;0.000;2023-07-29T13:02:41;99990.88;;;27.51;47.87
78625;BME280;67944;0.000;0.000;2023-07-29T13:05:09;99986.34;;;27.51;48.13
78625;BME280;67944;0.000;0.000;2023-07-29T13:07:42;99987.72;;;27.54;47.90
78625;BME280;67944;0.000;0.000;2023-07-29T13:10:08;99994.94;;;27.53;47.87
78625;BME280;67944;0.000;0.000;2023-07-29T13:12:34;99980.28;;;27.56;48.01
78625;BME280;67944;0.000;0.000;2023-07-29T13:15:00;99971.22;;;27.57;47.62